Terminal Aerodrome Forecast
Issued by NWS Twin Cities, MN

Home | Current Version | Previous Version | Text Only | Print | Product List | Glossary Off
Versions: 1 2 3 4 5 6 7 8 9 10 11 12 13 14 15

000
FTUS43 KMPX 170500
TAFEAU
TAF
KEAU 170538Z 1706/1806 01007KT 6SM -RA OVC025
      TEMPO 1709/1712 3SM -RASN OVC015
     FM171200 32008KT 5SM BR OVC012
     FM171400 32010KT P6SM OVC015
     FM171800 31009KT P6SM OVC025
     FM172100 31009KT P6SM OVC040
     FM180200 33005KT P6SM SCT200=

USA.gov is the U.S. government's official web portal to all federal, state and local government web resources and services.